sensor_id;sensor_type;location;lat;lon;timestamp;temperature;humidity
59007;DHT22;44792;52.760;6.726;2024-02-23T00:00:51;6.60;99.90
59007;DHT22;44792;52.760;6.726;2024-02-23T00:03:17;6.70;99.90
59007;DHT22;44792;52.760;6.726;2024-02-23T00:05:42;6.70;99.90
59007;DHT22;44792;52.760;6.726;2024-02-23T00:08:08;6.70;99.90
59007;DHT22;44792;52.760;6.726;2024-02-23T00:10:37;6.50;99.90
59007;DHT22;44792;52.760;6.726;2024-02-23T00:13:02;6.60;99.90
59007;DHT22;44792;52.760;6.726;2024-02-23T00:15:28;6.50;99.90
59007;DHT22;44792;52.760;6.726;2024-02-23T00:17:54;6.50;99.90
59007;DHT22;44792;52.760;6.726;2024-02-23T00:20:20;6.50;99.90
59007;DHT22;44792;52.760;6.726;2024-02-23T00:22:46;6.50;99.90
59007;DHT22;44792;52.760;6.726;2024-02-23T00:25:11;6.60;99.90
59007;DHT22;44792;52.760;6.726;2024-02-23T00:27:37;6.50;99.90
59007;DHT22;44792;52.760;6.726;2024-02-23T00:30:05;6.50;99.90
59007;DHT22;44792;52.760;6.726;2024-02-23T00:32:31;6.50;99.90
59007;DHT22;44792;52.760;6.726;2024-02-23T00:34:57;6.40;99.90
59007;DHT22;44792;52.760;6.726;2024-02-23T00:37:23;6.40;99.90
59007;DHT22;44792;52.760;6.726;2024-02-23T00:39:48;6.30;99.90
59007;DHT22;44792;52.760;6.726;2024-02-23T00:42:14;6.30;99.90
59007;DHT22;44792;52.760;6.726;2024-02-23T00:44:40;6.20;99.90
59007;DHT22;44792;52.760;6.726;2024-02-23T00:47:06;6.30;99.90
59007;DHT22;44792;52.760;6.726;2024-02-23T00:49:31;6.00;99.90
59007;DHT22;44792;52.760;6.726;2024-02-23T00:51:57;5.90;99.90
59007;DHT22;44792;52.760;6.726;2024-02-23T00:54:23;5.90;99.90
59007;DHT22;44792;52.760;6.726;2024-02-23T00:56:48;5.90;99.90
59007;DHT22;44792;52.760;6.726;2024-02-23T00:59:14;5.80;99.90
59007;DHT22;44792;52.760;6.726;2024-02-23T01:01:40;5.90;99.90
59007;DHT22;44792;52.760;6.726;2024-02-23T01:04:06;5.90;99.90
59007;DHT22;44792;52.760;6.726;2024-02-23T01:06:31;5.80;99.90
59007;DHT22;44792;52.760;6.726;2024-02-23T01:08:57;5.70;99.90
59007;DHT22;44792;52.760;6.726;2024-02-23T01:11:23;5.80;99.90
59007;DHT22;44792;52.760;6.726;2024-02-23T01:13:48;5.80;99.90
59007;DHT22;44792;52.760;6.726;2024-02-23T01:16:14;6.00;99.90
59007;DHT22;44792;52.760;6.726;2024-02-23T01:18:40;6.00;99.90
59007;DHT22;44792;52.760;6.726;2024-02-23T01:21:06;6.10;99.90
59007;DHT22;44792;52.760;6.726;2024-02-23T01:23:32;6.00;99.90
59007;DHT22;44792;52.760;6.726;2024-02-23T01:25:57;6.00;99.90
59007;DHT22;44792;52.760;6.726;2024-02-23T01:28:25;6.10;99.90
59007;DHT22;44792;52.760;6.726;2024-02-23T01:30:50;6.10;99.90
59007;DHT22;44792;52.760;6.726;2024-02-23T01:33:16;6.00;99.90
59007;DHT22;44792;52.760;6.726;2024-02-23T01:35:42;6.00;99.90
59007;DHT22;44792;52.760;6.726;2024-02-23T01:38:07;6.00;99.90
59007;DHT22;44792;52.760;6.726;2024-02-23T01:40:33;5.90;99.90
59007;DHT22;44792;52.760;6.726;2024-02-23T01:43:05;5.80;99.90
59007;DHT22;44792;52.760;6.726;2024-02-23T01:45:31;5.80;99.90
59007;DHT22;44792;52.760;6.726;2024-02-23T01:47:58;5.80;99.90
59007;DHT22;44792;52.760;6.726;2024-02-23T01:50:25;5.70;99.90
59007;DHT22;44792;52.760;6.726;2024-02-23T01:52:51;5.70;99.90
59007;DHT22;44792;52.760;6.726;2024-02-23T01:55:21;5.70;99.90
59007;DHT22;44792;52.760;6.726;2024-02-23T01:57:47;5.80;99.90
59007;DHT22;44792;52.760;6.726;2024-02-23T02:00:17;5.90;99.90
59007;DHT22;44792;52.760;6.726;2024-02-23T02:02:44;5.70;99.90
59007;DHT22;44792;52.760;6.726;2024-02-23T02:05:10;5.80;99.90
59007;DHT22;44792;52.760;6.726;2024-02-23T02:07:36;5.70;99.90
59007;DHT22;44792;52.760;6.726;2024-02-23T02:10:04;5.70;99.90
59007;DHT22;44792;52.760;6.726;2024-02-23T02:12:32;5.70;99.90
59007;DHT22;44792;52.760;6.726;2024-02-23T02:14:58;5.60;99.90
59007;DHT22;44792;52.760;6.726;2024-02-23T02:17:26;5.70;99.90
59007;DHT22;44792;52.760;6.726;2024-02-23T02:19:52;5.80;99.90
59007;DHT22;44792;52.760;6.726;2024-02-23T02:22:18;5.70;99.90
59007;DHT22;44792;52.760;6.726;2024-02-23T02:24:43;5.70;99.90
59007;DHT22;44792;52.760;6.726;2024-02-23T02:27:11;5.70;99.90
59007;DHT22;44792;52.760;6.726;2024-02-23T02:29:37;5.70;99.90
59007;DHT22;44792;52.760;6.726;2024-02-23T02:32:03;5.60;99.90
59007;DHT22;44792;52.760;6.726;2024-02-23T02:34:29;5.60;99.90
59007;DHT22;44792;52.760;6.726;2024-02-23T02:36:55;5.70;99.90
59007;DHT22;44792;52.760;6.726;2024-02-23T02:39:21;5.70;99.90
59007;DHT22;44792;52.760;6.726;2024-02-23T02:41:50;5.80;99.90
59007;DHT22;44792;52.760;6.726;2024-02-23T02:44:16;5.80;99.90
59007;DHT22;44792;52.760;6.726;2024-02-23T02:46:42;5.80;99.90
59007;DHT22;44792;52.760;6.726;2024-02-23T02:49:08;5.90;99.90
59007;DHT22;44792;52.760;6.726;2024-02-23T02:51:33;5.90;99.90
59007;DHT22;44792;52.760;6.726;2024-02-23T02:53:59;5.70;99.90
59007;DHT22;44792;52.760;6.726;2024-02-23T02:56:25;5.80;99.90
59007;DHT22;44792;52.760;6.726;2024-02-23T02:58:50;5.70;99.90
59007;DHT22;44792;52.760;6.726;2024-02-23T03:01:16;5.80;99.90
59007;DHT22;44792;52.760;6.726;2024-02-23T03:03:42;5.90;99.90
59007;DHT22;44792;52.760;6.726;2024-02-23T03:06:07;5.90;99.90
59007;DHT22;44792;52.760;6.726;2024-02-23T03:08:34;5.90;99.90
59007;DHT22;44792;52.760;6.726;2024-02-23T03:10:59;5.80;99.90
59007;DHT22;44792;52.760;6.726;2024-02-23T03:13:25;5.80;99.90
59007;DHT22;44792;52.760;6.726;2024-02-23T03:15:51;5.70;99.90
59007;DHT22;44792;52.760;6.726;2024-02-23T03:18:16;5.70;99.90
59007;DHT22;44792;52.760;6.726;2024-02-23T03:20:42;5.70;99.90
59007;DHT22;44792;52.760;6.726;2024-02-23T03:23:08;5.70;99.90
59007;DHT22;44792;52.760;6.726;2024-02-23T03:25:34;5.70;99.90
59007;DHT22;44792;52.760;6.726;2024-02-23T03:27:59;5.80;99.90
59007;DHT22;44792;52.760;6.726;2024-02-23T03:30:26;5.70;99.90
59007;DHT22;44792;52.760;6.726;2024-02-23T03:32:51;5.70;99.90
59007;DHT22;44792;52.760;6.726;2024-02-23T03:35:17;5.70;99.90
59007;DHT22;44792;52.760;6.726;2024-02-23T03:37:43;5.70;99.90
59007;DHT22;44792;52.760;6.726;2024-02-23T03:40:09;5.70;99.90
59007;DHT22;44792;52.760;6.726;2024-02-23T03:42:35;5.70;99.90
59007;DHT22;44792;52.760;6.726;2024-02-23T03:45:02;5.70;99.90
59007;DHT22;44792;52.760;6.726;2024-02-23T03:47:27;5.70;99.90
59007;DHT22;44792;52.760;6.726;2024-02-23T03:49:54;5.70;99.90
59007;DHT22;44792;52.760;6.726;2024-02-23T03:52:19;5.70;99.90
59007;DHT22;44792;52.760;6.726;2024-02-23T03:54:45;5.70;99.90
59007;DHT22;44792;52.760;6.726;2024-02-23T03:57:11;5.70;99.90
59007;DHT22;44792;52.760;6.726;2024-02-23T03:59:37;5.70;99.90
59007;DHT22;44792;52.760;6.726;2024-02-23T04:02:03;5.60;99.90
59007;DHT22;44792;52.760;6.726;2024-02-23T04:04:29;5.50;99.90
59007;DHT22;44792;52.760;6.726;2024-02-23T04:06:55;5.60;99.90
59007;DHT22;44792;52.760;6.726;2024-02-23T04:09:21;5.60;99.90
59007;DHT22;44792;52.760;6.726;2024-02-23T04:11:49;5.60;99.90
59007;DHT22;44792;52.760;6.726;2024-02-23T04:14:15;5.50;99.90
59007;DHT22;44792;52.760;6.726;2024-02-23T04:16:41;5.50;99.90
59007;DHT22;44792;52.760;6.726;2024-02-23T04:19:06;5.60;99.90
59007;DHT22;44792;52.760;6.726;2024-02-23T04:21:32;5.50;99.90
59007;DHT22;44792;52.760;6.726;2024-02-23T04:23:58;5.60;99.90
59007;DHT22;44792;52.760;6.726;2024-02-23T04:26:24;5.60;99.90
59007;DHT22;44792;52.760;6.726;2024-02-23T04:28:49;5.60;99.90
59007;DHT22;44792;52.760;6.726;2024-02-23T04:31:15;5.60;99.90
59007;DHT22;44792;52.760;6.726;2024-02-23T04:33:41;5.60;99.90
59007;DHT22;44792;52.760;6.726;2024-02-23T04:36:07;5.60;99.90
59007;DHT22;44792;52.760;6.726;2024-02-23T04:38:33;5.60;99.90
59007;DHT22;44792;52.760;6.726;2024-02-23T04:41:03;5.60;99.90
59007;DHT22;44792;52.760;6.726;2024-02-23T04:43:29;5.60;99.90
59007;DHT22;44792;52.760;6.726;2024-02-23T04:45:55;5.60;99.90
59007;DHT22;44792;52.760;6.726;2024-02-23T04:48:20;5.60;99.90
59007;DHT22;44792;52.760;6.726;2024-02-23T04:50:46;5.60;99.90
59007;DHT22;44792;52.760;6.726;2024-02-23T04:53:12;5.60;99.90
59007;DHT22;44792;52.760;6.726;2024-02-23T04:55:38;5.60;99.90
59007;DHT22;44792;52.760;6.726;2024-02-23T04:58:04;5.60;99.90
59007;DHT22;44792;52.760;6.726;2024-02-23T05:00:29;5.60;99.90
59007;DHT22;44792;52.760;6.726;2024-02-23T05:03:02;5.60;99.90
59007;DHT22;44792;52.760;6.726;2024-02-23T05:05:32;5.60;99.90
59007;DHT22;44792;52.760;6.726;2024-02-23T05:07:58;5.70;99.90
59007;DHT22;44792;52.760;6.726;2024-02-23T05:10:23;5.60;99.90
59007;DHT22;44792;52.760;6.726;2024-02-23T05:12:49;5.60;99.90
59007;DHT22;44792;52.760;6.726;2024-02-23T05:15:16;5.60;99.90
59007;DHT22;44792;52.760;6.726;2024-02-23T05:17:42;5.60;99.90
59007;DHT22;44792;52.760;6.726;2024-02-23T05:20:08;5.70;99.90
59007;DHT22;44792;52.760;6.726;2024-02-23T05:22:39;5.50;99.90
59007;DHT22;44792;52.760;6.726;2024-02-23T05:25:05;5.60;99.90
59007;DHT22;44792;52.760;6.726;2024-02-23T05:27:32;5.60;99.90
59007;DHT22;44792;52.760;6.726;2024-02-23T05:29:57;5.70;99.90
59007;DHT22;44792;52.760;6.726;2024-02-23T05:32:23;5.70;99.90
59007;DHT22;44792;52.760;6.726;2024-02-23T05:34:49;5.70;99.90
59007;DHT22;44792;52.760;6.726;2024-02-23T05:37:18;5.70;99.90
59007;DHT22;44792;52.760;6.726;2024-02-23T05:39:44;5.70;99.90
59007;DHT22;44792;52.760;6.726;2024-02-23T05:42:11;5.70;99.90
59007;DHT22;44792;52.760;6.726;2024-02-23T05:44:37;5.70;99.90
59007;DHT22;44792;52.760;6.726;2024-02-23T05:47:03;5.70;99.90
59007;DHT22;44792;52.760;6.726;2024-02-23T05:49:29;5.60;99.90
59007;DHT22;44792;52.760;6.726;2024-02-23T05:51:54;5.60;99.90
59007;DHT22;44792;52.760;6.726;2024-02-23T05:54:20;5.60;99.90
59007;DHT22;44792;52.760;6.726;2024-02-23T05:56:46;5.60;99.90
59007;DHT22;44792;52.760;6.726;2024-02-23T05:59:12;5.60;99.90
59007;DHT22;44792;52.760;6.726;2024-02-23T06:01:37;5.60;99.90
59007;DHT22;44792;52.760;6.726;2024-02-23T06:04:03;5.60;99.90
59007;DHT22;44792;52.760;6.726;2024-02-23T06:06:29;5.60;99.90
59007;DHT22;44792;52.760;6.726;2024-02-23T06:08:55;5.60;99.90
59007;DHT22;44792;52.760;6.726;2024-02-23T06:11:20;5.60;99.90
59007;DHT22;44792;52.760;6.726;2024-02-23T06:13:47;5.60;99.90
59007;DHT22;44792;52.760;6.726;2024-02-23T06:16:12;5.60;99.90
59007;DHT22;44792;52.760;6.726;2024-02-23T06:18:38;5.60;99.90
59007;DHT22;44792;52.760;6.726;2024-02-23T06:21:16;5.60;99.90
59007;DHT22;44792;52.760;6.726;2024-02-23T06:23:45;5.50;99.90
59007;DHT22;44792;52.760;6.726;2024-02-23T06:26:12;5.40;99.90
59007;DHT22;44792;52.760;6.726;2024-02-23T06:28:38;5.50;99.90
59007;DHT22;44792;52.760;6.726;2024-02-23T06:31:07;5.60;99.90
59007;DHT22;44792;52.760;6.726;2024-02-23T06:33:33;5.40;99.90
59007;DHT22;44792;52.760;6.726;2024-02-23T06:35:58;5.50;99.90
59007;DHT22;44792;52.760;6.726;2024-02-23T06:38:24;5.50;99.90
59007;DHT22;44792;52.760;6.726;2024-02-23T06:40:50;5.50;99.90
59007;DHT22;44792;52.760;6.726;2024-02-23T06:43:16;5.50;99.90
59007;DHT22;44792;52.760;6.726;2024-02-23T06:45:42;5.40;99.90
59007;DHT22;44792;52.760;6.726;2024-02-23T06:48:08;5.50;99.90
59007;DHT22;44792;52.760;6.726;2024-02-23T06:50:35;5.50;99.90
59007;DHT22;44792;52.760;6.726;2024-02-23T06:53:01;5.60;99.90
59007;DHT22;44792;52.760;6.726;2024-02-23T06:55:27;5.50;99.90
59007;DHT22;44792;52.760;6.726;2024-02-23T06:57:54;5.60;99.90
59007;DHT22;44792;52.760;6.726;2024-02-23T07:00:21;5.60;99.90
59007;DHT22;44792;52.760;6.726;2024-02-23T07:02:49;5.60;99.90
59007;DHT22;44792;52.760;6.726;2024-02-23T07:05:15;5.50;99.90
59007;DHT22;44792;52.760;6.726;2024-02-23T07:07:41;5.60;99.90
59007;DHT22;44792;52.760;6.726;2024-02-23T07:10:07;5.70;99.90
59007;DHT22;44792;52.760;6.726;2024-02-23T07:12:33;5.70;99.90
59007;DHT22;44792;52.760;6.726;2024-02-23T07:14:58;5.70;99.90
59007;DHT22;44792;52.760;6.726;2024-02-23T07:17:24;5.70;99.90
59007;DHT22;44792;52.760;6.726;2024-02-23T07:19:50;5.70;99.90
59007;DHT22;44792;52.760;6.726;2024-02-23T07:22:17;5.70;99.90
59007;DHT22;44792;52.760;6.726;2024-02-23T07:24:46;5.70;99.90
59007;DHT22;44792;52.760;6.726;2024-02-23T07:27:11;5.70;99.90
59007;DHT22;44792;52.760;6.726;2024-02-23T07:29:37;5.70;99.90
59007;DHT22;44792;52.760;6.726;2024-02-23T07:32:03;5.80;99.90
59007;DHT22;44792;52.760;6.726;2024-02-23T07:34:31;5.80;99.90
59007;DHT22;44792;52.760;6.726;2024-02-23T07:36:57;5.80;99.90
59007;DHT22;44792;52.760;6.726;2024-02-23T07:39:23;5.80;99.90
59007;DHT22;44792;52.760;6.726;2024-02-23T07:41:49;5.90;99.90
59007;DHT22;44792;52.760;6.726;2024-02-23T07:44:14;5.90;99.90
59007;DHT22;44792;52.760;6.726;2024-02-23T07:46:41;5.80;99.90
59007;DHT22;44792;52.760;6.726;2024-02-23T07:49:07;5.90;99.90
59007;DHT22;44792;52.760;6.726;2024-02-23T07:51:33;5.80;99.90
59007;DHT22;44792;52.760;6.726;2024-02-23T07:53:59;5.90;99.90
59007;DHT22;44792;52.760;6.726;2024-02-23T07:56:24;5.80;99.90
59007;DHT22;44792;52.760;6.726;2024-02-23T07:58:50;6.00;99.90
59007;DHT22;44792;52.760;6.726;2024-02-23T08:01:16;5.90;99.90
59007;DHT22;44792;52.760;6.726;2024-02-23T08:03:41;6.00;99.90
59007;DHT22;44792;52.760;6.726;2024-02-23T08:06:07;6.00;99.90
59007;DHT22;44792;52.760;6.726;2024-02-23T08:08:33;6.00;99.90
59007;DHT22;44792;52.760;6.726;2024-02-23T08:11:03;6.10;99.90
59007;DHT22;44792;52.760;6.726;2024-02-23T08:13:29;6.00;99.90
59007;DHT22;44792;52.760;6.726;2024-02-23T08:15:55;6.00;99.90
59007;DHT22;44792;52.760;6.726;2024-02-23T08:18:20;6.10;99.90
59007;DHT22;44792;52.760;6.726;2024-02-23T08:20:48;6.10;99.90
59007;DHT22;44792;52.760;6.726;2024-02-23T08:23:14;6.10;99.90
59007;DHT22;44792;52.760;6.726;2024-02-23T08:25:40;6.20;99.90
59007;DHT22;44792;52.760;6.726;2024-02-23T08:28:06;6.30;99.90
59007;DHT22;44792;52.760;6.726;2024-02-23T08:30:32;6.30;99.90
59007;DHT22;44792;52.760;6.726;2024-02-23T08:32:58;6.40;99.90
59007;DHT22;44792;52.760;6.726;2024-02-23T08:35:24;6.30;99.90
59007;DHT22;44792;52.760;6.726;2024-02-23T08:37:49;6.40;99.90
59007;DHT22;44792;52.760;6.726;2024-02-23T08:40:15;6.50;99.90
59007;DHT22;44792;52.760;6.726;2024-02-23T08:42:41;6.50;99.90
59007;DHT22;44792;52.760;6.726;2024-02-23T08:45:08;6.70;99.90
59007;DHT22;44792;52.760;6.726;2024-02-23T08:47:35;6.70;99.90
59007;DHT22;44792;52.760;6.726;2024-02-23T08:50:02;6.70;99.90
59007;DHT22;44792;52.760;6.726;2024-02-23T08:52:28;6.70;99.90
59007;DHT22;44792;52.760;6.726;2024-02-23T08:54:54;6.80;99.90
59007;DHT22;44792;52.760;6.726;2024-02-23T08:57:19;6.80;99.90
59007;DHT22;44792;52.760;6.726;2024-02-23T08:59:46;6.80;99.90
59007;DHT22;44792;52.760;6.726;2024-02-23T09:02:12;6.90;99.90
59007;DHT22;44792;52.760;6.726;2024-02-23T09:04:38;7.00;99.90
59007;DHT22;44792;52.760;6.726;2024-02-23T09:07:04;7.00;99.90
59007;DHT22;44792;52.760;6.726;2024-02-23T09:09:30;6.90;99.90
59007;DHT22;44792;52.760;6.726;2024-02-23T09:11:56;7.00;99.90
59007;DHT22;44792;52.760;6.726;2024-02-23T09:14:22;7.00;99.90
59007;DHT22;44792;52.760;6.726;2024-02-23T09:16:47;7.00;99.90
59007;DHT22;44792;52.760;6.726;2024-02-23T09:19:16;7.00;99.90
59007;DHT22;44792;52.760;6.726;2024-02-23T09:21:42;7.10;99.90
59007;DHT22;44792;52.760;6.726;2024-02-23T09:24:08;7.10;99.90
59007;DHT22;44792;52.760;6.726;2024-02-23T09:26:33;7.10;99.90
59007;DHT22;44792;52.760;6.726;2024-02-23T09:28:59;7.10;99.90
59007;DHT22;44792;52.760;6.726;2024-02-23T09:31:25;7.20;99.90
59007;DHT22;44792;52.760;6.726;2024-02-23T09:33:54;7.20;99.90
59007;DHT22;44792;52.760;6.726;2024-02-23T09:36:20;7.20;99.90
59007;DHT22;44792;52.760;6.726;2024-02-23T09:38:47;7.10;99.90
59007;DHT22;44792;52.760;6.726;2024-02-23T09:41:21;7.10;99.90
59007;DHT22;44792;52.760;6.726;2024-02-23T09:43:47;7.10;99.90
59007;DHT22;44792;52.760;6.726;2024-02-23T09:46:14;7.20;99.90
59007;DHT22;44792;52.760;6.726;2024-02-23T09:48:44;7.20;99.90
59007;DHT22;44792;52.760;6.726;2024-02-23T09:51:13;7.30;99.90
59007;DHT22;44792;52.760;6.726;2024-02-23T09:53:41;7.30;99.90
59007;DHT22;44792;52.760;6.726;2024-02-23T09:56:08;7.40;99.90
59007;DHT22;44792;52.760;6.726;2024-02-23T09:58:36;7.30;99.90
59007;DHT22;44792;52.760;6.726;2024-02-23T10:01:03;7.40;99.90
59007;DHT22;44792;52.760;6.726;2024-02-23T10:03:29;7.30;99.90
59007;DHT22;44792;52.760;6.726;2024-02-23T10:05:59;7.40;99.90
59007;DHT22;44792;52.760;6.726;2024-02-23T10:08:29;7.40;99.90
59007;DHT22;44792;52.760;6.726;2024-02-23T10:10:55;7.30;99.90
59007;DHT22;44792;52.760;6.726;2024-02-23T10:13:24;7.30;99.90
59007;DHT22;44792;52.760;6.726;2024-02-23T10:15:53;7.30;99.90
59007;DHT22;44792;52.760;6.726;2024-02-23T10:18:19;7.30;99.90
59007;DHT22;44792;52.760;6.726;2024-02-23T10:20:46;7.30;99.90
59007;DHT22;44792;52.760;6.726;2024-02-23T10:23:12;7.40;99.90
59007;DHT22;44792;52.760;6.726;2024-02-23T10:25:38;7.40;99.90
59007;DHT22;44792;52.760;6.726;2024-02-23T10:28:05;7.40;99.90
59007;DHT22;44792;52.760;6.726;2024-02-23T10:30:32;7.40;99.90
59007;DHT22;44792;52.760;6.726;2024-02-23T10:32:58;7.40;99.90
59007;DHT22;44792;52.760;6.726;2024-02-23T10:35:25;7.40;99.90
59007;DHT22;44792;52.760;6.726;2024-02-23T10:37:52;7.40;99.90
59007;DHT22;44792;52.760;6.726;2024-02-23T10:40:20;7.40;99.90
59007;DHT22;44792;52.760;6.726;2024-02-23T10:42:48;7.40;99.90
59007;DHT22;44792;52.760;6.726;2024-02-23T10:45:18;7.60;99.90
59007;DHT22;44792;52.760;6.726;2024-02-23T10:47:44;7.50;99.90
59007;DHT22;44792;52.760;6.726;2024-02-23T10:50:10;7.40;99.90
59007;DHT22;44792;52.760;6.726;2024-02-23T10:52:41;7.40;99.90
59007;DHT22;44792;52.760;6.726;2024-02-23T10:55:09;7.50;99.90
59007;DHT22;44792;52.760;6.726;2024-02-23T10:57:35;7.40;99.90
59007;DHT22;44792;52.760;6.726;2024-02-23T11:00:02;7.50;99.90
59007;DHT22;44792;52.760;6.726;2024-02-23T11:02:32;7.40;99.90
59007;DHT22;44792;52.760;6.726;2024-02-23T11:05:01;7.40;99.90
59007;DHT22;44792;52.760;6.726;2024-02-23T11:07:30;7.40;99.90
59007;DHT22;44792;52.760;6.726;2024-02-23T11:09:59;7.50;99.90
59007;DHT22;44792;52.760;6.726;2024-02-23T11:12:25;7.40;99.90
59007;DHT22;44792;52.760;6.726;2024-02-23T11:14:56;7.40;99.90
59007;DHT22;44792;52.760;6.726;2024-02-23T11:17:22;7.50;99.90
59007;DHT22;44792;52.760;6.726;2024-02-23T11:19:50;7.50;99.90
59007;DHT22;44792;52.760;6.726;2024-02-23T11:22:41;7.50;99.90
59007;DHT22;44792;52.760;6.726;2024-02-23T11:25:08;7.60;99.90
59007;DHT22;44792;52.760;6.726;2024-02-23T11:27:34;7.60;99.90
59007;DHT22;44792;52.760;6.726;2024-02-23T11:32:41;7.60;99.90
59007;DHT22;44792;52.760;6.726;2024-02-23T11:35:10;7.50;99.90
59007;DHT22;44792;52.760;6.726;2024-02-23T11:40:12;7.20;99.90
59007;DHT22;44792;52.760;6.726;2024-02-23T11:42:42;7.10;99.90
59007;DHT22;44792;52.760;6.726;2024-02-23T11:45:11;7.10;99.90
59007;DHT22;44792;52.760;6.726;2024-02-23T11:47:37;7.20;99.90
59007;DHT22;44792;52.760;6.726;2024-02-23T11:50:07;7.10;99.90
59007;DHT22;44792;52.760;6.726;2024-02-23T11:52:33;7.10;99.90
59007;DHT22;44792;52.760;6.726;2024-02-23T11:54:59;7.10;99.90
59007;DHT22;44792;52.760;6.726;2024-02-23T11:57:25;7.10;99.90
59007;DHT22;44792;52.760;6.726;2024-02-23T11:59:52;7.00;99.90
59007;DHT22;44792;52.760;6.726;2024-02-23T12:02:18;7.10;99.90
59007;DHT22;44792;52.760;6.726;2024-02-23T12:04:43;7.10;99.90
59007;DHT22;44792;52.760;6.726;2024-02-23T12:07:09;7.10;99.90
59007;DHT22;44792;52.760;6.726;2024-02-23T12:09:35;7.00;99.90
59007;DHT22;44792;52.760;6.726;2024-02-23T12:12:01;7.10;99.90
59007;DHT22;44792;52.760;6.726;2024-02-23T12:14:27;7.10;99.90
59007;DHT22;44792;52.760;6.726;2024-02-23T12:16:53;7.00;99.90
59007;DHT22;44792;52.760;6.726;2024-02-23T12:19:19;7.00;99.90
59007;DHT22;44792;52.760;6.726;2024-02-23T12:21:47;7.00;99.90
59007;DHT22;44792;52.760;6.726;2024-02-23T12:24:13;7.00;99.90
59007;DHT22;44792;52.760;6.726;2024-02-23T12:26:39;7.00;99.90
59007;DHT22;44792;52.760;6.726;2024-02-23T12:29:05;6.90;99.90
59007;DHT22;44792;52.760;6.726;2024-02-23T12:31:33;6.80;99.90
59007;DHT22;44792;52.760;6.726;2024-02-23T12:34:00;6.90;99.90
59007;DHT22;44792;52.760;6.726;2024-02-23T12:36:26;6.80;99.90
59007;DHT22;44792;52.760;6.726;2024-02-23T12:38:51;6.80;99.90
59007;DHT22;44792;52.760;6.726;2024-02-23T12:41:17;6.90;99.90
59007;DHT22;44792;52.760;6.726;2024-02-23T12:43:43;6.90;99.90
59007;DHT22;44792;52.760;6.726;2024-02-23T12:46:09;6.90;99.90
59007;DHT22;44792;52.760;6.726;2024-02-23T12:48:35;6.90;99.90
59007;DHT22;44792;52.760;6.726;2024-02-23T12:51:01;6.90;99.90
59007;DHT22;44792;52.760;6.726;2024-02-23T12:53:40;7.00;99.90
59007;DHT22;44792;52.760;6.726;2024-02-23T12:56:14;7.00;99.90
59007;DHT22;44792;52.760;6.726;2024-02-23T12:58:42;7.00;99.90
59007;DHT22;44792;52.760;6.726;2024-02-23T13:01:09;7.00;99.90
59007;DHT22;44792;52.760;6.726;2024-02-23T13:03:37;7.00;99.90
59007;DHT22;44792;52.760;6.726;2024-02-23T13:06:04;7.00;99.90
59007;DHT22;44792;52.760;6.726;2024-02-23T13:08:30;7.00;99.90
59007;DHT22;44792;52.760;6.726;2024-02-23T13:10:57;7.00;99.90
59007;DHT22;44792;52.760;6.726;2024-02-23T13:13:23;7.10;99.90
59007;DHT22;44792;52.760;6.726;2024-02-23T13:15:51;7.10;99.90
59007;DHT22;44792;52.760;6.726;2024-02-23T13:18:17;7.20;99.90
59007;DHT22;44792;52.760;6.726;2024-02-23T13:20:44;7.20;99.90
59007;DHT22;44792;52.760;6.726;2024-02-23T13:23:11;7.20;99.90
59007;DHT22;44792;52.760;6.726;2024-02-23T13:25:38;7.20;99.90
59007;DHT22;44792;52.760;6.726;2024-02-23T13:28:04;7.20;99.90
59007;DHT22;44792;52.760;6.726;2024-02-23T13:30:30;7.20;99.90
59007;DHT22;44792;52.760;6.726;2024-02-23T13:32:56;7.20;99.90
59007;DHT22;44792;52.760;6.726;2024-02-23T13:35:22;7.20;99.90
59007;DHT22;44792;52.760;6.726;2024-02-23T13:37:48;7.20;99.90
59007;DHT22;44792;52.760;6.726;2024-02-23T13:40:13;7.30;99.90
59007;DHT22;44792;52.760;6.726;2024-02-23T13:42:40;7.20;99.90
59007;DHT22;44792;52.760;6.726;2024-02-23T13:45:07;7.20;99.90
59007;DHT22;44792;52.760;6.726;2024-02-23T13:47:33;7.20;99.90
59007;DHT22;44792;52.760;6.726;2024-02-23T13:50:00;7.20;99.90
59007;DHT22;44792;52.760;6.726;2024-02-23T13:52:25;7.20;99.90
59007;DHT22;44792;52.760;6.726;2024-02-23T13:54:51;7.20;99.90
59007;DHT22;44792;52.760;6.726;2024-02-23T13:57:17;7.30;99.90
59007;DHT22;44792;52.760;6.726;2024-02-23T13:59:43;7.30;99.90
59007;DHT22;44792;52.760;6.726;2024-02-23T14:02:09;7.30;99.90
59007;DHT22;44792;52.760;6.726;2024-02-23T14:04:34;7.30;99.90
59007;DHT22;44792;52.760;6.726;2024-02-23T14:07:01;7.30;99.90
59007;DHT22;44792;52.760;6.726;2024-02-23T14:09:26;7.30;99.90
59007;DHT22;44792;52.760;6.726;2024-02-23T14:11:52;7.30;99.90
59007;DHT22;44792;52.760;6.726;2024-02-23T14:14:19;7.40;99.90
59007;DHT22;44792;52.760;6.726;2024-02-23T14:16:45;7.40;99.90
59007;DHT22;44792;52.760;6.726;2024-02-23T14:19:11;7.40;99.90
59007;DHT22;44792;52.760;6.726;2024-02-23T14:21:37;7.40;99.90
59007;DHT22;44792;52.760;6.726;2024-02-23T14:24:03;7.50;99.90
59007;DHT22;44792;52.760;6.726;2024-02-23T14:26:29;7.40;99.90
59007;DHT22;44792;52.760;6.726;2024-02-23T14:28:55;7.50;99.90
59007;DHT22;44792;52.760;6.726;2024-02-23T14:31:21;7.50;99.90
59007;DHT22;44792;52.760;6.726;2024-02-23T14:33:46;7.50;99.90
59007;DHT22;44792;52.760;6.726;2024-02-23T14:36:16;7.50;99.90
59007;DHT22;44792;52.760;6.726;2024-02-23T14:38:42;7.60;99.90
59007;DHT22;44792;52.760;6.726;2024-02-23T14:41:08;7.60;99.90
59007;DHT22;44792;52.760;6.726;2024-02-23T14:43:35;7.60;99.90
59007;DHT22;44792;52.760;6.726;2024-02-23T14:46:02;7.70;99.90
59007;DHT22;44792;52.760;6.726;2024-02-23T14:48:28;7.50;99.90
59007;DHT22;44792;52.760;6.726;2024-02-23T14:50:53;7.50;99.90
59007;DHT22;44792;52.760;6.726;2024-02-23T14:53:19;7.40;99.90
59007;DHT22;44792;52.760;6.726;2024-02-23T14:55:45;7.40;99.90
59007;DHT22;44792;52.760;6.726;2024-02-23T14:58:12;7.40;99.90
59007;DHT22;44792;52.760;6.726;2024-02-23T15:00:38;7.40;99.90
59007;DHT22;44792;52.760;6.726;2024-02-23T15:03:04;7.30;99.90
59007;DHT22;44792;52.760;6.726;2024-02-23T15:05:30;7.40;99.90
59007;DHT22;44792;52.760;6.726;2024-02-23T15:07:56;7.30;99.90
59007;DHT22;44792;52.760;6.726;2024-02-23T15:10:22;7.40;99.90
59007;DHT22;44792;52.760;6.726;2024-02-23T15:12:47;7.40;99.90
59007;DHT22;44792;52.760;6.726;2024-02-23T15:15:13;7.50;99.90
59007;DHT22;44792;52.760;6.726;2024-02-23T15:17:39;7.40;99.90
59007;DHT22;44792;52.760;6.726;2024-02-23T15:20:08;7.40;99.90
59007;DHT22;44792;52.760;6.726;2024-02-23T15:22:34;7.50;99.90
59007;DHT22;44792;52.760;6.726;2024-02-23T15:25:00;7.60;99.90
59007;DHT22;44792;52.760;6.726;2024-02-23T15:27:26;7.50;99.90
59007;DHT22;44792;52.760;6.726;2024-02-23T15:29:51;7.60;99.90
59007;DHT22;44792;52.760;6.726;2024-02-23T15:32:17;7.60;99.90
59007;DHT22;44792;52.760;6.726;2024-02-23T15:34:43;7.60;99.90
59007;DHT22;44792;52.760;6.726;2024-02-23T15:37:10;7.60;99.90
59007;DHT22;44792;52.760;6.726;2024-02-23T15:39:36;7.60;99.90
59007;DHT22;44792;52.760;6.726;2024-02-23T15:42:02;7.60;99.90
59007;DHT22;44792;52.760;6.726;2024-02-23T15:44:28;7.50;99.90